Stations météo

Publicité
Mont Aigoual, France (7560): Température de l'air & dewpoint: 17.02.2017 01:00:00 - 23.02.2017 01:00:00 (CET)Mont Aigoual, France (7560): Vitesse du vent & gusts: 17.02.2017 01:00:00 - 23.02.2017 01:00:00 (CET)Mont Aigoual, France (7560): Direction du vent: 17.02.2017 01:00:00 - 23.02.2017 01:00:00 (CET)Mont Aigoual, France (7560): visibility: 17.02.2017 01:00:00 - 23.02.2017 01:00:00 (CET)Mont Aigoual, France (7560): Quantités de précipitations: 17.02.2017 01:00:00 - 23.02.2017 01:00:00 (CET)
Date & Time tt [°C] td [°C] ff [km/h] ff [knt] fx [km/h] fx [knt] dd vv [km] rr [mm]
23.02.2017 01:00:00 8,7 -10,8 29 16 42 23 SSW 20 -
23.02.2017 00:00:00 8,5 -6,1 24 13 33 18 SSW 20 0,0
22.02.2017 23:00:00 8,2 -3,7 19 10 29 15 SSW 20 0,0
22.02.2017 22:00:00 8,5 -2,5 14 8 18 10 SSW 20 0,0
22.02.2017 21:00:00 9,0 -2,6 8 4 11 6 S 20 0,0
22.02.2017 20:00:00 8,1 -2,0 10 5 26 14 NNW 20 0,0
22.02.2017 19:00:00 7,0 1,1 19 10 24 13 N 20 0,0
22.02.2017 18:00:00 8,8 -1,9 14 8 31 17 N 20 0,0
22.02.2017 17:00:00 8,9 -2,7 17 9 36 19 N 20 0,0
22.02.2017 16:00:00 8,7 -2,0 22 12 47 25 NNW 20 0,0
22.02.2017 15:00:00 8,5 -5,0 33 18 45 25 N 20 0,0
22.02.2017 14:00:00 8,5 -4,4 22 12 52 28 N 20 0,0
22.02.2017 13:00:00 7,9 -4,6 40 21 64 35 N 20 0,0
22.02.2017 12:00:00 7,3 -5,1 43 23 71 38 NNW 20 0,0
22.02.2017 11:00:00 6,5 -4,6 57 31 87 47 NNW 20 0,0
22.02.2017 10:00:00 6,3 -4,2 64 34 85 46 NNW 20 0,0
22.02.2017 09:00:00 5,0 -4,1 63 34 82 44 NNW 20 0,0
22.02.2017 08:00:00 3,9 -3,6 61 33 76 41 NNW 20 0,0
22.02.2017 07:00:00 4,1 -5,4 61 33 96 52 NNW 20 0,0
22.02.2017 06:00:00 4,8 -5,3 74 40 92 50 NNW 20 0,0
22.02.2017 05:00:00 5,2 -4,9 69 38 90 49 NNW 20 0,0
22.02.2017 04:00:00 5,1 -6,8 70 38 87 47 NNW 20 0,0
22.02.2017 03:00:00 3,9 -5,6 69 37 88 47 NNW 20 0,0
22.02.2017 02:00:00 0,4 -0,3 70 38 91 49 NW 0,2 0,0
22.02.2017 01:00:00 2,4 -2,7 68 37 85 46 NNW 20 0,0
22.02.2017 00:00:00 1,0 0,0 71 38 86 47 NW 0,5 0,0
21.02.2017 23:00:00 1,5 -0,1 63 34 85 46 NW 2,6 0,0
21.02.2017 22:00:00 1,7 -0,1 67 36 93 50 NNW 5 0,0
21.02.2017 21:00:00 2,0 1,7 58 32 84 45 NNW 0,1 0,0
21.02.2017 20:00:00 2,6 2,5 51 27 76 41 NNW - 0,0
21.02.2017 19:00:00 3,1 2,8 50 27 74 40 NNW 0,1 0,0
21.02.2017 18:00:00 3,4 3,1 54 29 80 43 NNW 0,1 0,0
21.02.2017 17:00:00 3,5 3,2 56 30 78 42 N 0,1 0,0
21.02.2017 16:00:00 3,3 3,0 60 33 86 47 NNW 0,1 0,0
21.02.2017 15:00:00 3,3 2,9 62 34 79 43 NNW 0,1 0,0
21.02.2017 14:00:00 4,7 2,9 60 32 75 40 NNW 20 0,0
21.02.2017 13:00:00 4,3 2,8 53 29 82 44 N 20 0,0
21.02.2017 12:00:00 2,7 2,6 53 29 74 40 N 3,0 0,0
21.02.2017 11:00:00 2,5 2,4 53 29 89 48 N 0,1 0,0
21.02.2017 10:00:00 2,1 2,0 68 37 91 49 N 0,1 0,0
21.02.2017 09:00:00 2,5 2,4 58 32 84 45 N 0,1 0,0
21.02.2017 08:00:00 2,5 2,4 65 35 85 46 N 0,1 0,0
21.02.2017 07:00:00 2,4 2,1 61 33 84 45 N 0,1 0,0
21.02.2017 06:00:00 2,4 2,1 49 26 76 41 N 0,1 0,0
21.02.2017 05:00:00 2,5 2,2 54 29 77 42 N 0,2 0,0
21.02.2017 04:00:00 2,3 2,0 53 28 75 41 N 0,1 0,0
21.02.2017 03:00:00 2,0 1,3 53 29 72 39 N 15 0,0
21.02.2017 02:00:00 2,5 -1,7 52 28 74 40 N 20 0,0
21.02.2017 01:00:00 1,5 -0,3 51 28 74 40 N 20 0,0
21.02.2017 00:00:00 1,7 0,1 50 27 77 42 N 20 0,0
20.02.2017 23:00:00 2,2 -0,6 49 27 73 40 N 20 0,0
20.02.2017 22:00:00 0,7 -0,6 51 28 75 40 NNW 10 0,0
20.02.2017 21:00:00 2,1 -1,0 50 27 75 41 NNW 20 0,0
20.02.2017 20:00:00 1,5 -0,7 55 30 71 39 NNW 16 0,0
20.02.2017 19:00:00 1,7 -0,7 52 28 67 36 NNW 14 0,0
20.02.2017 18:00:00 2,4 -1,4 40 22 59 32 N 20 0,0
20.02.2017 17:00:00 3,3 -2,0 42 23 64 35 N 20 0,0
20.02.2017 16:00:00 3,1 -1,8 43 23 67 36 NNW 20 0,0
20.02.2017 15:00:00 3,0 -3,4 47 26 63 34 NNW 20 0,0
20.02.2017 14:00:00 2,8 -3,3 44 24 69 38 NNW 20 0,0
20.02.2017 13:00:00 2,2 -3,5 48 26 86 47 N 20 0,0
20.02.2017 12:00:00 1,3 -4,8 63 34 90 48 N 20 0,0
20.02.2017 11:00:00 0,6 -5,0 55 30 82 44 N 20 0,0
20.02.2017 10:00:00 -0,2 -5,0 59 32 89 48 NNW 20 0,0
20.02.2017 09:00:00 -0,5 -5,5 55 30 84 46 N 20 0,0
20.02.2017 08:00:00 -0,9 -5,7 59 32 84 45 NNW 20 0,0
20.02.2017 07:00:00 -0,8 -5,8 68 37 94 51 NNW 20 0,0
20.02.2017 06:00:00 -0,6 -6,0 70 38 96 52 N 20 0,0
20.02.2017 05:00:00 -0,6 -5,8 70 38 93 50 N 20 0,0
20.02.2017 04:00:00 -0,3 -10,8 71 39 93 50 N 20 0,0
20.02.2017 03:00:00 -0,4 -3,3 69 38 90 49 NNW 20 0,0
20.02.2017 02:00:00 -0,6 -1,3 58 31 78 42 N 14 0,0
20.02.2017 01:00:00 -0,6 -0,7 59 32 77 41 NNW 0,2 0,0
20.02.2017 00:00:00 -0,2 -0,3 48 26 74 40 NNW 0,1 0,0
19.02.2017 23:00:00 -0,1 -0,4 60 33 76 41 NNW 0,1 0,0
19.02.2017 22:00:00 0,1 -0,5 57 31 75 40 NNW 3,6 0,0
19.02.2017 21:00:00 0,5 -0,2 56 30 77 42 NNW 9 0,0
19.02.2017 20:00:00 0,9 0,2 58 31 73 39 NNW 11 0,0
19.02.2017 19:00:00 1,3 -0,5 45 25 63 34 NNW 20 0,0
19.02.2017 18:00:00 2,2 -1,1 42 23 57 31 NNW 20 0,0
19.02.2017 17:00:00 2,9 -1,3 33 18 53 29 NNW 20 0,0
19.02.2017 16:00:00 3,0 -2,3 31 17 47 26 N 20 0,0
19.02.2017 15:00:00 3,4 -4,1 20 11 40 21 NNW 20 0,0
19.02.2017 14:00:00 2,7 -3,6 21 12 35 19 NW 20 0,0
19.02.2017 13:00:00 2,3 -2,2 18 10 34 19 NW 20 0,0
19.02.2017 12:00:00 1,6 -3,7 19 10 30 16 WNW 20 0,0
19.02.2017 11:00:00 1,7 -5,2 18 10 27 15 WNW 19 0,0
19.02.2017 10:00:00 2,1 -4,9 11 6 25 14 WSW 20 0,0
19.02.2017 09:00:00 1,3 -4,6 10 5 19 10 WSW 20 0,0
19.02.2017 08:00:00 0,2 -5,6 11 6 16 9 WNW 20 0,0
19.02.2017 07:00:00 0,1 -6,5 13 7 23 12 W 20 0,0
19.02.2017 06:00:00 -0,1 -0,7 8 4 19 10 WSW 7 0,0
19.02.2017 05:00:00 0,2 -0,9 13 7 24 13 SW 9 0,0
19.02.2017 04:00:00 0,4 -5,0 16 8 22 12 SW 20 0,0
19.02.2017 03:00:00 0,6 -5,4 16 9 22 12 SW 20 0,0
19.02.2017 02:00:00 0,5 -5,7 10 6 19 10 SW 20 0,0
19.02.2017 01:00:00 0,6 -5,0 14 8 24 13 SW 20 0,0
19.02.2017 00:00:00 1,0 -4,2 16 8 31 17 SSW 20 0,0
18.02.2017 23:00:00 0,9 -2,7 17 9 35 19 SSW 20 0,0
18.02.2017 22:00:00 1,4 -5,1 22 12 49 26 S 20 0,0
18.02.2017 21:00:00 1,5 -5,2 30 16 49 26 S 20 0,0
18.02.2017 20:00:00 1,6 -4,7 29 15 47 25 S 20 0,0
18.02.2017 19:00:00 1,4 -1,3 18 10 29 15 S 20 0,0
18.02.2017 18:00:00 2,3 -0,6 19 10 35 19 S 20 0,0
18.02.2017 17:00:00 3,1 -1,3 20 11 34 18 S 20 0,0
18.02.2017 16:00:00 3,4 -1,8 16 9 32 18 S 20 0,0
18.02.2017 15:00:00 3,7 -2,9 20 11 32 17 S 20 0,0
18.02.2017 14:00:00 4,0 -4,0 19 10 34 18 S 20 0,0
18.02.2017 13:00:00 3,4 -5,3 13 7 23 12 S 20 0,0
18.02.2017 12:00:00 2,8 -8,9 8 4 33 18 E 20 0,0
18.02.2017 11:00:00 2,8 -13,1 20 11 35 19 NE 20 0,0
18.02.2017 10:00:00 3,4 -16,4 10 6 23 12 ENE 20 0,0
18.02.2017 09:00:00 3,1 -17,2 10 6 18 10 E 20 0,0
18.02.2017 08:00:00 2,5 -17,1 4 2 24 13 E 20 0,0
18.02.2017 07:00:00 2,7 -18,1 23 12 35 19 N 20 0,0
18.02.2017 06:00:00 2,5 -9,1 29 15 37 20 N 20 0,0
18.02.2017 05:00:00 2,4 -8,1 26 14 32 17 N 20 0,0
18.02.2017 04:00:00 2,4 -6,0 25 13 33 18 N 20 0,0
18.02.2017 03:00:00 2,9 -4,1 26 14 39 21 N 20 0,0
18.02.2017 02:00:00 2,7 -5,0 32 17 41 22 N 20 0,0
18.02.2017 01:00:00 1,9 -6,0 29 16 52 28 N 20 0,0
18.02.2017 00:00:00 1,6 -2,4 37 20 49 27 NNW 20 0,0
17.02.2017 23:00:00 1,3 -1,4 35 19 49 26 N 20 0,0
17.02.2017 22:00:00 1,6 -0,8 34 18 42 23 N 20 0,0
17.02.2017 21:00:00 2,3 -1,1 29 15 35 19 N 20 0,0
17.02.2017 20:00:00 2,7 -0,2 23 12 34 19 NNW 20 0,0
17.02.2017 19:00:00 3,5 -1,7 26 14 47 25 N 20 0,0
17.02.2017 18:00:00 3,7 -1,5 30 16 41 22 N 20 0,0
17.02.2017 17:00:00 4,0 -0,8 31 17 45 25 N 20 0,0
17.02.2017 16:00:00 4,8 -0,6 20 11 36 19 N 20 0,0
17.02.2017 15:00:00 4,6 0,0 24 13 48 26 N 20 0,0
17.02.2017 14:00:00 4,1 -0,5 27 15 41 22 N 20 0,0
17.02.2017 13:00:00 4,1 -0,1 14 7 31 17 NNW 20 0,0
17.02.2017 12:00:00 4,0 0,0 10 6 30 16 NW 19 0,0
17.02.2017 11:00:00 3,9 -1,7 16 9 33 18 N 20 0,0
17.02.2017 10:00:00 3,0 -1,7 24 13 40 21 NNW 20 0,0
17.02.2017 09:00:00 2,2 -0,1 29 16 40 22 N 20 0,0
17.02.2017 08:00:00 1,6 0,1 24 13 34 19 NW 20 0,0
17.02.2017 07:00:00 1,7 0,7 29 16 34 18 NW 20 0,0
17.02.2017 06:00:00 1,5 0,9 28 15 41 22 NW 20 0,0
17.02.2017 05:00:00 1,8 0,9 36 19 45 24 NW 20 0,0
17.02.2017 04:00:00 2,1 1,1 27 15 38 20 NNW 20 0,0
17.02.2017 03:00:00 2,2 1,0 29 15 36 19 N 20 0,0
17.02.2017 02:00:00 2,4 1,5 27 14 34 18 N 20 0,0
17.02.2017 01:00:00 2,4 2,0 26 14 36 19 N 20 0,0

tt = Température de l'air
td = dewpoint
ff = Vitesse du vent
fx = gusts
dd = Direction du vent
vv = visibility
rr = Quantités de précipitations

stations d'obs. à proximité